Weather at Miho Airfield

Public forecast

Using degrees Celsius for public forecast. Weather courtesy of forecast.io.

Closest aviation weather report (METAR) to Miho Airfield

Report is more than 6 hours old.

Closest report is JASDF Shizuhama Air Base, 16.6 nm (30.8 km) SW. Retrieved 2021/01/16 06:39 UTC (15 hours ago):

RJNY 160639Z 26012KT 9999 FEW015 SCT110 13/08 Q1010 RMK 1CU015 3AC110 A2984

Closest aviation forecast (TAF) to Miho Airfield

Forecast is more than 12 hours old.

Closest forecast is Mount Fuji Shizuoka Airport, 21.4 nm (39.6 km) SW. Retrieved 2021/01/16 06:00 UTC (16 hours ago):

TAF RJNS 160511Z 1606/1712 28016KT 9999 FEW030 TEMPO 1606/1610 28020G30KT